Time;durP1;ratioP1;P1;durP2;ratioP2;P2;SDS_P1;SDS_P2;PMS_P1;PMS_P2;Temp;Humidity;BMP_temperature;BMP_pressure;BME280_temperature;BME280_humidity;BME280_pressure;Samples;Min_cycle;Max_cycle;Signal;HPM_P1;HPM_P2
2021/04/21 00:00:53;;;;;;;3.88;2.40;;;;;;;;;;5059523;28;20050;-75
2021/04/21 00:03:19;;;;;;;4.60;2.60;;;;;;;;;;5075920;28;20032;-75
2021/04/21 00:05:44;;;;;;;4.77;2.60;;;;;;;;;;5058623;28;20135;-75
2021/04/21 00:08:10;;;;;;;5.17;2.67;;;;;;;;;;5058555;28;20028;-75
2021/04/21 00:10:35;;;;;;;4.73;2.67;;;;;;;;;;5075545;28;20063;-74
2021/04/21 00:13:01;;;;;;;4.57;2.33;;;;;;;;;;5075617;28;20372;-75
2021/04/21 00:15:26;;;;;;;5.67;2.80;;;;;;;;;;5075704;28;20063;-75
2021/04/21 00:17:54;;;;;;;4.33;2.70;;;;;;;;;;5093560;28;20059;-74
2021/04/21 00:20:19;;;;;;;5.00;2.58;;;;;;;;;;5042109;28;20043;-75
2021/04/21 00:22:48;;;;;;;6.83;2.97;;;;;;;;;;5058737;28;20028;-75
2021/04/21 00:25:14;;;;;;;5.10;2.72;;;;;;;;;;5059220;28;20036;-75
2021/04/21 00:27:39;;;;;;;4.80;2.70;;;;;;;;;;5058814;28;20085;-74
2021/04/21 00:30:07;;;;;;;4.87;2.63;;;;;;;;;;5075408;28;20038;-75
2021/04/21 00:32:53;;;;;;;4.28;2.42;;;;;;;;;;5075297;28;20466;-75
2021/04/21 00:35:26;;;;;;;4.32;2.58;;;;;;;;;;5058868;28;20070;-75
2021/04/21 00:37:53;;;;;;;4.57;2.58;;;;;;;;;;5059487;28;20081;-75
2021/04/21 00:40:20;;;;;;;;;;;;;;;;;;5075769;28;20031;-75
2021/04/21 00:43:00;;;;;;;4.75;2.60;;;;;;;;;;5058411;28;19942;-75
2021/04/21 00:45:41;;;;;;;3.92;2.22;;;;;;;;;;5058884;28;20040;-74
2021/04/21 00:48:15;;;;;;;4.95;2.60;;;;;;;;;;5075430;28;20057;-75
2021/04/21 00:50:46;;;;;;;4.28;2.35;;;;;;;;;;5059255;28;20099;-75
2021/04/21 00:53:17;;;;;;;5.35;2.85;;;;;;;;;;5059245;28;20055;-75
2021/04/21 00:56:19;;;;;;;4.60;2.53;;;;;;;;;;5075044;28;20094;-75
2021/04/21 00:59:05;;;;;;;4.72;2.72;;;;;;;;;;5035964;28;20044;-74
2021/04/21 01:01:31;;;;;;;4.90;2.58;;;;;;;;;;5058987;28;20036;-75
2021/04/21 01:03:56;;;;;;;5.40;2.73;;;;;;;;;;5075253;28;20070;-75
2021/04/21 01:06:26;;;;;;;5.33;2.47;;;;;;;;;;5075081;28;20070;-76
2021/04/21 01:08:53;;;;;;;4.90;2.58;;;;;;;;;;5058775;28;20467;-76
2021/04/21 01:11:37;;;;;;;4.97;2.80;;;;;;;;;;5058471;28;20117;-76
2021/04/21 01:14:06;;;;;;;5.15;2.90;;;;;;;;;;5075080;28;20032;-76
2021/04/21 01:16:32;;;;;;;5.07;2.85;;;;;;;;;;5075237;28;20544;-75
2021/04/21 01:19:01;;;;;;;5.30;2.88;;;;;;;;;;5061132;28;20032;-76
2021/04/21 01:21:39;;;;;;;5.95;2.78;;;;;;;;;;5062267;28;20043;-76
2021/04/21 01:24:33;;;;;;;4.95;2.70;;;;;;;;;;5062432;28;20043;-76
2021/04/21 01:27:08;;;;;;;4.90;2.67;;;;;;;;;;5082367;28;20036;-76
2021/04/21 01:29:39;;;;;;;5.80;2.90;;;;;;;;;;5079001;28;20027;-75
2021/04/21 01:32:10;;;;;;;5.25;2.55;;;;;;;;;;5090906;28;20031;-76
2021/04/21 01:34:36;;;;;;;5.40;2.97;;;;;;;;;;5110598;28;20043;-76
2021/04/21 01:37:04;;;;;;;4.67;2.77;;;;;;;;;;5062149;28;20410;-75
2021/04/21 01:39:29;;;;;;;5.30;2.88;;;;;;;;;;5061964;28;20482;-76
2021/04/21 01:41:56;;;;;;;5.17;2.80;;;;;;;;;;5062007;28;20063;-75
2021/04/21 01:44:28;;;;;;;4.63;2.35;;;;;;;;;;5078592;28;20483;-75
2021/04/21 01:47:01;;;;;;;5.75;2.80;;;;;;;;;;5062634;28;20035;-76
2021/04/21 01:49:35;;;;;;;4.95;2.88;;;;;;;;;;5045327;28;20042;-75
2021/04/21 01:52:22;;;;;;;6.72;2.63;;;;;;;;;;5096479;28;20032;-76
2021/04/21 01:54:48;;;;;;;4.75;2.63;;;;;;;;;;5078506;28;20024;-76
2021/04/21 01:57:31;;;;;;;4.70;2.67;;;;;;;;;;5061716;28;20039;-76
2021/04/21 02:00:05;;;;;;;4.15;2.60;;;;;;;;;;5062005;28;20089;-76
2021/04/21 02:02:36;;;;;;;5.75;2.78;;;;;;;;;;5061903;28;20035;-76
2021/04/21 02:05:30;;;;;;;5.85;2.90;;;;;;;;;;5061489;28;20024;-75
2021/04/21 02:07:55;;;;;;;5.32;2.72;;;;;;;;;;5079955;28;20035;-75
2021/04/21 02:10:35;;;;;;;5.90;3.10;;;;;;;;;;5096093;28;20376;-76
2021/04/21 02:13:04;;;;;;;5.95;2.63;;;;;;;;;;5079780;28;20032;-76
2021/04/21 02:15:54;;;;;;;4.78;2.70;;;;;;;;;;5077814;28;20036;-76
2021/04/21 02:18:27;;;;;;;4.82;2.70;;;;;;;;;;5099020;28;20032;-76
2021/04/21 02:20:57;;;;;;;5.45;2.88;;;;;;;;;;5116102;28;20500;-75
2021/04/21 02:23:56;;;;;;;4.97;2.60;;;;;;;;;;5098481;28;20027;-76
2021/04/21 02:26:40;;;;;;;5.13;2.67;;;;;;;;;;5056298;28;20118;-76
2021/04/21 02:29:15;;;;;;;5.28;2.80;;;;;;;;;;5097078;28;20031;-75
2021/04/21 02:32:03;;;;;;;5.15;2.80;;;;;;;;;;5097814;28;20035;-75
2021/04/21 02:34:34;;;;;;;;;;;;;;;;;;5098223;28;20034;-76
2021/04/21 02:37:21;;;;;;;5.28;2.83;;;;;;;;;;5097730;28;19951;-76
2021/04/21 02:39:58;;;;;;;6.32;3.03;;;;;;;;;;5080862;28;20036;-76
2021/04/21 02:42:23;;;;;;;;;;;;;;;;;;5116021;28;20127;-76
2021/04/21 02:45:07;;;;;;;4.72;2.78;;;;;;;;;;5115731;28;20406;-76
2021/04/21 02:47:43;;;;;;;5.40;2.95;;;;;;;;;;5115869;28;20031;-76
2021/04/21 02:50:29;;;;;;;6.50;2.92;;;;;;;;;;5080591;28;20020;-76
2021/04/21 02:53:32;;;;;;;5.00;2.63;;;;;;;;;;5115605;28;20039;-75
2021/04/21 02:56:24;;;;;;;5.38;2.80;;;;;;;;;;5115526;28;20034;-76
2021/04/21 02:58:52;;;;;;;6.03;2.85;;;;;;;;;;5097163;28;20036;-75
2021/04/21 03:01:41;;;;;;;5.15;2.78;;;;;;;;;;5097162;28;20035;-76
2021/04/21 03:04:13;;;;;;;5.60;2.65;;;;;;;;;;5098947;28;20444;-76
2021/04/21 03:06:39;;;;;;;5.28;3.00;;;;;;;;;;5097269;28;20031;-76
2021/04/21 03:09:06;;;;;;;4.65;2.58;;;;;;;;;;5097203;28;20027;-75
2021/04/21 03:11:32;;;;;;;5.22;2.80;;;;;;;;;;5096981;28;20174;-76
2021/04/21 03:14:13;;;;;;;5.00;2.67;;;;;;;;;;5115364;28;20111;-75
2021/04/21 03:16:39;;;;;;;4.93;2.55;;;;;;;;;;5098380;28;20028;-76
2021/04/21 03:19:06;;;;;;;4.88;2.80;;;;;;;;;;5080011;28;20482;-76
2021/04/21 03:21:40;;;;;;;4.63;2.75;;;;;;;;;;5096849;28;20035;-76
2021/04/21 03:24:09;;;;;;;4.85;2.60;;;;;;;;;;5080198;28;20038;-76
2021/04/21 03:26:36;;;;;;;5.88;2.92;;;;;;;;;;5079744;28;20088;-76
2021/04/21 03:29:01;;;;;;;5.38;2.75;;;;;;;;;;5096979;28;20027;-76
2021/04/21 03:31:29;;;;;;;4.67;2.70;;;;;;;;;;5096636;28;20110;-76
2021/04/21 03:33:56;;;;;;;5.32;2.90;;;;;;;;;;5096560;28;20031;-76
2021/04/21 03:36:22;;;;;;;5.18;2.75;;;;;;;;;;5079540;28;20118;-75
2021/04/21 03:38:47;;;;;;;5.50;2.80;;;;;;;;;;5096706;28;20566;-76
2021/04/21 03:41:13;;;;;;;5.13;2.67;;;;;;;;;;5114727;28;20027;-76
2021/04/21 03:43:38;;;;;;;4.83;2.70;;;;;;;;;;5114903;28;20428;-76
2021/04/21 03:46:04;;;;;;;5.40;2.97;;;;;;;;;;5083886;23;20049;-76
2021/04/21 03:48:31;;;;;;;5.50;3.00;;;;;;;;;;5022913;28;20354;-76
2021/04/21 03:50:57;;;;;;;4.95;2.65;;;;;;;;;;5042805;28;20040;-76
2021/04/21 03:53:24;;;;;;;5.40;2.77;;;;;;;;;;5054709;28;20032;-76
2021/04/21 03:55:49;;;;;;;5.68;2.83;;;;;;;;;;5072359;28;20509;-76
2021/04/21 03:58:17;;;;;;;5.40;2.80;;;;;;;;;;5039057;28;20040;-76
2021/04/21 04:00:42;;;;;;;5.50;2.90;;;;;;;;;;5055728;28;20044;-76
2021/04/21 04:03:17;;;;;;;4.90;2.60;;;;;;;;;;5055990;28;20039;-76
2021/04/21 04:05:46;;;;;;;4.97;2.78;;;;;;;;;;5055852;28;20108;-75
2021/04/21 04:08:14;;;;;;;4.22;2.53;;;;;;;;;;5072275;28;20029;-76
2021/04/21 04:10:44;;;;;;;4.38;2.53;;;;;;;;;;5055500;28;20067;-76
2021/04/21 04:13:10;;;;;;;6.05;3.00;;;;;;;;;;5055804;28;20036;-76
2021/04/21 04:15:36;;;;;;;4.57;2.65;;;;;;;;;;5072252;28;20028;-76
2021/04/21 04:18:03;;;;;;;4.80;2.90;;;;;;;;;;5055408;28;20033;-76
2021/04/21 04:20:28;;;;;;;4.95;2.55;;;;;;;;;;5055398;28;20032;-76
2021/04/21 04:22:53;;;;;;;4.83;2.50;;;;;;;;;;5038804;28;20024;-76
2021/04/21 04:25:19;;;;;;;5.00;2.90;;;;;;;;;;5055682;28;20064;-77
2021/04/21 04:27:45;;;;;;;4.97;2.90;;;;;;;;;;5054487;28;20028;-76
2021/04/21 04:30:11;;;;;;;5.80;2.80;;;;;;;;;;5072828;28;20028;-77
2021/04/21 04:32:39;;;;;;;5.50;3.00;;;;;;;;;;5054997;28;20043;-76
2021/04/21 04:35:04;;;;;;;4.75;2.90;;;;;;;;;;5038598;28;20480;-76
2021/04/21 04:37:31;;;;;;;6.33;3.00;;;;;;;;;;5055547;28;20123;-76
2021/04/21 04:39:56;;;;;;;6.72;2.80;;;;;;;;;;5038554;28;20037;-76
2021/04/21 04:42:21;;;;;;;5.47;2.80;;;;;;;;;;5071800;28;20036;-76
2021/04/21 04:44:48;;;;;;;5.70;2.80;;;;;;;;;;5038497;28;20036;-76
2021/04/21 04:47:38;;;;;;;5.45;2.88;;;;;;;;;;5054932;28;20044;-76
2021/04/21 04:50:04;;;;;;;5.22;2.97;;;;;;;;;;5038549;28;20025;-76
2021/04/21 04:52:32;;;;;;;5.38;2.90;;;;;;;;;;5054209;28;20043;-76
2021/04/21 04:54:57;;;;;;;5.38;3.00;;;;;;;;;;5044862;28;20445;-76
2021/04/21 04:57:23;;;;;;;5.60;2.83;;;;;;;;;;5024885;28;20032;-76
2021/04/21 04:59:48;;;;;;;6.10;3.00;;;;;;;;;;5038425;28;20117;-76
2021/04/21 05:02:17;;;;;;;4.73;2.53;;;;;;;;;;5038418;28;20503;-76
2021/04/21 05:05:03;;;;;;;5.10;2.70;;;;;;;;;;5054899;28;20544;-76
2021/04/21 05:07:31;;;;;;;5.97;3.28;;;;;;;;;;5054573;28;20052;-76
2021/04/21 05:09:57;;;;;;;5.78;2.97;;;;;;;;;;5054943;28;20108;-76
2021/04/21 05:12:23;;;;;;;5.20;2.90;;;;;;;;;;5038247;28;20028;-76
2021/04/21 05:14:49;;;;;;;4.90;2.67;;;;;;;;;;5038434;28;20029;-76
2021/04/21 05:17:32;;;;;;;4.88;2.63;;;;;;;;;;5021756;28;20024;-75
2021/04/21 05:20:49;;;;;;;5.00;2.70;;;;;;;;;;5054597;28;20487;-75
2021/04/21 05:23:17;;;;;;;4.75;2.80;;;;;;;;;;5021900;28;20036;-76
2021/04/21 05:26:07;;;;;;;5.55;2.97;;;;;;;;;;5072639;28;20037;-76
2021/04/21 05:28:53;;;;;;;5.15;2.70;;;;;;;;;;5072804;28;20078;-76
2021/04/21 05:31:54;;;;;;;5.07;3.03;;;;;;;;;;5054688;28;20391;-76
2021/04/21 05:35:06;;;;;;;5.45;3.08;;;;;;;;;;5057672;28;20062;-75
2021/04/21 05:38:10;;;;;;;5.15;2.63;;;;;;;;;;5057413;28;20025;-75
2021/04/21 05:40:54;;;;;;;4.88;2.90;;;;;;;;;;5040478;28;21713;-75
2021/04/21 05:43:38;;;;;;;5.18;2.80;;;;;;;;;;5054655;28;20530;-77
2021/04/21 05:46:41;;;;;;;5.22;2.70;;;;;;;;;;5058105;28;20072;-75
2021/04/21 05:49:34;;;;;;;5.07;2.97;;;;;;;;;;5072434;28;20107;-75
2021/04/21 05:52:14;;;;;;;5.88;3.00;;;;;;;;;;5067801;28;20131;-75
2021/04/21 05:55:09;;;;;;;5.03;2.90;;;;;;;;;;5018397;28;20025;-75
2021/04/21 05:57:50;;;;;;;5.05;2.60;;;;;;;;;;5037054;28;20025;-75
2021/04/21 06:00:37;;;;;;;5.78;3.08;;;;;;;;;;5018119;28;20076;-76
2021/04/21 06:03:03;;;;;;;5.77;2.77;;;;;;;;;;5051126;28;20134;-75
2021/04/21 06:05:28;;;;;;;5.10;2.83;;;;;;;;;;5003411;28;20032;-75
2021/04/21 06:07:53;;;;;;;5.00;2.57;;;;;;;;;;5037999;28;20033;-75
2021/04/21 06:10:24;;;;;;;5.80;3.03;;;;;;;;;;5021365;28;20453;-77
2021/04/21 06:12:58;;;;;;;5.80;2.80;;;;;;;;;;5021771;28;20033;-76
2021/04/21 06:15:26;;;;;;;5.97;2.90;;;;;;;;;;5021895;28;20116;-75
2021/04/21 06:17:53;;;;;;;6.30;3.10;;;;;;;;;;5005106;28;20123;-76
2021/04/21 06:20:28;;;;;;;5.03;2.70;;;;;;;;;;5021214;28;20038;-77
2021/04/21 06:23:23;;;;;;;4.97;2.90;;;;;;;;;;5021369;28;20032;-76
2021/04/21 06:25:59;;;;;;;4.63;2.33;;;;;;;;;;5040338;28;20419;-76
2021/04/21 06:28:25;;;;;;;5.03;2.80;;;;;;;;;;5038132;28;20049;-75
2021/04/21 06:31:03;;;;;;;5.30;2.83;;;;;;;;;;5021110;28;20426;-75
2021/04/21 06:33:36;;;;;;;4.95;3.10;;;;;;;;;;5038116;28;20400;-76
2021/04/21 06:36:01;;;;;;;5.50;2.83;;;;;;;;;;5032313;28;20043;-77
2021/04/21 06:38:28;;;;;;;5.27;2.90;;;;;;;;;;5040730;28;20044;-77
2021/04/21 06:40:54;;;;;;;5.95;2.90;;;;;;;;;;5024550;28;20380;-75
2021/04/21 06:43:26;;;;;;;5.33;2.93;;;;;;;;;;5034866;28;20067;-75
2021/04/21 06:45:51;;;;;;;6.93;3.10;;;;;;;;;;5021030;28;20044;-76
2021/04/21 06:48:17;;;;;;;5.00;2.60;;;;;;;;;;5020877;28;20419;-76
2021/04/21 06:50:42;;;;;;;4.53;2.60;;;;;;;;;;5020776;28;20036;-76
2021/04/21 06:53:08;;;;;;;5.37;3.00;;;;;;;;;;5020823;28;20120;-75
2021/04/21 06:55:34;;;;;;;5.32;2.95;;;;;;;;;;5004381;28;20039;-76
2021/04/21 06:58:00;;;;;;;5.97;2.77;;;;;;;;;;5020869;28;20029;-76
2021/04/21 07:00:27;;;;;;;4.83;2.70;;;;;;;;;;5037139;28;20264;-76
2021/04/21 07:02:58;;;;;;;5.63;3.00;;;;;;;;;;5020532;28;20738;-75
2021/04/21 07:05:37;;;;;;;5.13;2.70;;;;;;;;;;5004920;28;20475;-75
2021/04/21 07:08:12;;;;;;;5.30;2.95;;;;;;;;;;5020891;28;20051;-76
2021/04/21 07:10:54;;;;;;;5.82;2.97;;;;;;;;;;5037499;28;20492;-76
2021/04/21 07:13:22;;;;;;;6.22;3.30;;;;;;;;;;5020895;28;20029;-77
2021/04/21 07:15:53;;;;;;;5.65;3.15;;;;;;;;;;5036348;28;20036;-75
2021/04/21 07:18:20;;;;;;;5.00;2.83;;;;;;;;;;5020242;28;20041;-76
2021/04/21 07:20:45;;;;;;;6.07;3.10;;;;;;;;;;5020604;28;20479;-76
2021/04/21 07:23:11;;;;;;;5.70;3.00;;;;;;;;;;5020006;28;20037;-77
2021/04/21 07:25:40;;;;;;;5.90;3.30;;;;;;;;;;5020419;28;20028;-77
2021/04/21 07:28:05;;;;;;;6.28;3.47;;;;;;;;;;5003760;28;20036;-75
2021/04/21 07:30:32;;;;;;;5.63;3.23;;;;;;;;;;5019878;28;20509;-75
2021/04/21 07:32:58;;;;;;;7.03;3.45;;;;;;;;;;5016480;28;20514;-76
2021/04/21 07:35:24;;;;;;;5.23;2.90;;;;;;;;;;5016292;28;20037;-75
2021/04/21 07:37:50;;;;;;;;;;;;;;;;;;5033086;28;20128;-76
2021/04/21 07:40:26;;;;;;;5.47;2.97;;;;;;;;;;5015960;28;20454;-77
2021/04/21 07:42:51;;;;;;;6.15;3.40;;;;;;;;;;5050167;28;20029;-76
2021/04/21 07:45:20;;;;;;;7.33;3.47;;;;;;;;;;5016162;28;20104;-76
2021/04/21 07:47:45;;;;;;;6.65;3.25;;;;;;;;;;5016754;28;20045;-76
2021/04/21 07:50:11;;;;;;;6.77;3.30;;;;;;;;;;5032240;28;20043;-76
2021/04/21 07:52:36;;;;;;;7.03;3.50;;;;;;;;;;5015808;28;20426;-77
2021/04/21 07:55:11;;;;;;;6.73;3.60;;;;;;;;;;5015779;28;20040;-76
2021/04/21 07:57:40;;;;;;;7.10;3.55;;;;;;;;;;5049641;28;20044;-76
2021/04/21 08:00:07;;;;;;;7.00;3.45;;;;;;;;;;5044163;28;20111;-77
2021/04/21 08:02:32;;;;;;;;;;;;;;;;;;5033970;28;20040;-76
2021/04/21 08:04:59;;;;;;;6.43;3.40;;;;;;;;;;5033332;28;19978;-76
2021/04/21 08:07:29;;;;;;;7.85;3.72;;;;;;;;;;5017072;28;20037;-76
2021/04/21 08:09:55;;;;;;;6.88;3.45;;;;;;;;;;5033319;28;20037;-76
2021/04/21 08:12:20;;;;;;;7.23;3.60;;;;;;;;;;5033357;28;20048;-77
2021/04/21 08:14:50;;;;;;;6.87;3.47;;;;;;;;;;5033482;28;20041;-76
2021/04/21 08:17:18;;;;;;;6.38;3.38;;;;;;;;;;5017279;28;20079;-78
2021/04/21 08:19:47;;;;;;;6.22;3.40;;;;;;;;;;5017111;28;20037;-76
2021/04/21 08:22:13;;;;;;;6.82;3.80;;;;;;;;;;5017126;28;20550;-77
2021/04/21 08:24:45;;;;;;;6.07;3.67;;;;;;;;;;5017145;28;20033;-76
2021/04/21 08:27:15;;;;;;;8.57;3.78;;;;;;;;;;5032820;28;20389;-77
2021/04/21 08:29:41;;;;;;;6.53;3.75;;;;;;;;;;5033144;28;20086;-76
2021/04/21 08:32:07;;;;;;;7.00;3.70;;;;;;;;;;5032977;28;20087;-76
2021/04/21 08:34:32;;;;;;;5.97;3.47;;;;;;;;;;5032910;28;20127;-76
2021/04/21 08:36:58;;;;;;;7.20;3.60;;;;;;;;;;5032843;28;20033;-76
2021/04/21 08:39:23;;;;;;;8.73;4.10;;;;;;;;;;5016035;28;20072;-76
2021/04/21 08:41:51;;;;;;;6.93;3.73;;;;;;;;;;5050853;28;20416;-76
2021/04/21 08:44:16;;;;;;;6.75;3.67;;;;;;;;;;5018098;28;20111;-77
2021/04/21 08:46:41;;;;;;;6.80;3.87;;;;;;;;;;5036083;28;20040;-76
2021/04/21 08:49:09;;;;;;;7.03;3.90;;;;;;;;;;5035370;28;20032;-76
2021/04/21 08:51:34;;;;;;;7.47;3.63;;;;;;;;;;5052282;28;20028;-76
2021/04/21 08:54:05;;;;;;;6.60;3.90;;;;;;;;;;5036046;28;20094;-76
2021/04/21 08:56:32;;;;;;;6.43;3.65;;;;;;;;;;5037194;28;20075;-76
2021/04/21 08:58:57;;;;;;;;;;;;;;;;;;5053657;28;20029;-76
2021/04/21 09:01:23;;;;;;;6.80;3.90;;;;;;;;;;5052628;28;20007;-76
2021/04/21 09:03:48;;;;;;;7.07;3.77;;;;;;;;;;5019679;28;20043;-76
2021/04/21 09:06:15;;;;;;;6.67;3.33;;;;;;;;;;5035825;28;20100;-75
2021/04/21 09:08:40;;;;;;;;;;;;;;;;;;5036586;28;20059;-76
2021/04/21 09:11:06;;;;;;;7.20;4.00;;;;;;;;;;5053496;28;19912;-75
2021/04/21 09:13:31;;;;;;;6.83;3.90;;;;;;;;;;5015785;28;20131;-76
2021/04/21 09:15:57;;;;;;;8.07;3.70;;;;;;;;;;5033052;28;20036;-76
2021/04/21 09:18:32;;;;;;;8.47;3.80;;;;;;;;;;5032280;28;20111;-76
2021/04/21 09:21:02;;;;;;;6.15;3.85;;;;;;;;;;5016970;28;20033;-76
2021/04/21 09:23:37;;;;;;;6.60;3.67;;;;;;;;;;5016580;28;20119;-75
2021/04/21 09:26:18;;;;;;;7.40;3.97;;;;;;;;;;5016263;28;20043;-76
2021/04/21 09:28:44;;;;;;;8.10;3.90;;;;;;;;;;5000405;28;20086;-76
2021/04/21 09:31:18;;;;;;;7.57;4.20;;;;;;;;;;4999316;28;20044;-76
2021/04/21 09:33:43;;;;;;;6.95;3.83;;;;;;;;;;5016015;28;20037;-76
2021/04/21 09:36:09;;;;;;;7.97;3.57;;;;;;;;;;5032026;28;20373;-76
2021/04/21 09:38:34;;;;;;;7.60;4.20;;;;;;;;;;4999768;28;20119;-75
2021/04/21 09:41:02;;;;;;;9.20;3.63;;;;;;;;;;5019242;28;20069;-76
2021/04/21 09:43:33;;;;;;;6.18;3.70;;;;;;;;;;5019618;28;20488;-76
2021/04/21 09:46:16;;;;;;;6.97;3.90;;;;;;;;;;5019549;28;20041;-76
2021/04/21 09:48:43;;;;;;;6.82;3.72;;;;;;;;;;5021144;28;20041;-76
2021/04/21 09:51:10;;;;;;;7.50;4.18;;;;;;;;;;5019678;28;20549;-76
2021/04/21 09:53:39;;;;;;;;;;;;;;;;;;5019772;28;20087;-76
2021/04/21 09:56:24;;;;;;;7.95;3.85;;;;;;;;;;5052588;28;20036;-76
2021/04/21 09:58:53;;;;;;;7.55;4.18;;;;;;;;;;5019588;28;20074;-76
2021/04/21 10:01:24;;;;;;;7.60;3.92;;;;;;;;;;5019025;28;20110;-76
2021/04/21 10:04:12;;;;;;;7.53;4.00;;;;;;;;;;5036004;28;20029;-76
2021/04/21 10:06:47;;;;;;;;;;;;;;;;;;5037865;28;20033;-76
2021/04/21 10:09:32;;;;;;;7.10;4.10;;;;;;;;;;5052711;28;19956;-76
2021/04/21 10:12:20;;;;;;;7.50;3.70;;;;;;;;;;5020012;28;20579;-76
2021/04/21 10:15:00;;;;;;;6.97;3.88;;;;;;;;;;5036226;28;20029;-76
2021/04/21 10:17:27;;;;;;;7.88;3.80;;;;;;;;;;5035535;28;20492;-76
2021/04/21 10:19:52;;;;;;;7.40;3.83;;;;;;;;;;5019559;28;20533;-76
2021/04/21 10:22:17;;;;;;;7.30;4.13;;;;;;;;;;5019335;28;20037;-76
2021/04/21 10:24:43;;;;;;;7.13;4.30;;;;;;;;;;5019021;28;20136;-76
2021/04/21 10:27:08;;;;;;;7.97;4.30;;;;;;;;;;5019441;28;20526;-76
2021/04/21 10:29:35;;;;;;;7.17;3.90;;;;;;;;;;5035101;28;20033;-76
2021/04/21 10:32:00;;;;;;;7.35;4.00;;;;;;;;;;5018770;28;20041;-77
2021/04/21 10:34:25;;;;;;;9.63;4.23;;;;;;;;;;5035675;28;20399;-76
2021/04/21 10:36:51;;;;;;;5.80;3.60;;;;;;;;;;5018377;28;20729;-77
2021/04/21 10:39:51;;;;;;;7.37;4.03;;;;;;;;;;5034762;28;20495;-76
2021/04/21 10:42:17;;;;;;;6.65;3.70;;;;;;;;;;5003119;28;20052;-76
2021/04/21 10:44:44;;;;;;;7.23;3.90;;;;;;;;;;5018469;28;20033;-76
2021/04/21 10:47:14;;;;;;;7.13;3.80;;;;;;;;;;5018979;28;20111;-76
2021/04/21 10:50:06;;;;;;;7.20;4.38;;;;;;;;;;5019079;28;20499;-76
2021/04/21 10:52:31;;;;;;;6.72;3.58;;;;;;;;;;5022454;28;20037;-77
2021/04/21 10:55:21;;;;;;;6.30;3.80;;;;;;;;;;5034900;28;20086;-76
2021/04/21 10:57:56;;;;;;;8.27;4.22;;;;;;;;;;5021045;28;20029;-77
2021/04/21 11:00:31;;;;;;;6.80;4.07;;;;;;;;;;5034653;28;20041;-76
2021/04/21 11:03:00;;;;;;;6.80;4.03;;;;;;;;;;5002128;28;20399;-77
2021/04/21 11:05:38;;;;;;;6.93;3.55;;;;;;;;;;5047365;28;20163;-76
2021/04/21 11:08:17;;;;;;;6.20;3.60;;;;;;;;;;5033075;28;20028;-76
2021/04/21 11:10:44;;;;;;;7.85;4.28;;;;;;;;;;5016901;28;20032;-76
2021/04/21 11:13:10;;;;;;;6.97;3.97;;;;;;;;;;5024112;28;20086;-77
2021/04/21 11:15:40;;;;;;;6.68;3.88;;;;;;;;;;5019815;28;20036;-77
2021/04/21 11:18:09;;;;;;;6.60;4.00;;;;;;;;;;5053058;28;20772;-77
2021/04/21 11:20:46;;;;;;;7.30;4.18;;;;;;;;;;5070683;28;20036;-77
2021/04/21 11:23:30;;;;;;;;;;;;;;;;;;5053203;28;20520;-77
2021/04/21 11:26:25;;;;;;;7.18;3.97;;;;;;;;;;5070559;28;20372;-77
2021/04/21 11:29:04;;;;;;;6.47;3.88;;;;;;;;;;5045765;28;20036;-77
2021/04/21 11:31:41;;;;;;;6.30;3.90;;;;;;;;;;5036081;28;20244;-77
2021/04/21 11:34:13;;;;;;;6.35;3.75;;;;;;;;;;5052631;28;20032;-77
2021/04/21 11:36:38;;;;;;;8.50;4.00;;;;;;;;;;5052306;28;20041;-77
2021/04/21 11:39:04;;;;;;;7.63;3.90;;;;;;;;;;5035716;28;20105;-77
2021/04/21 11:41:46;;;;;;;6.33;3.90;;;;;;;;;;5019241;28;20112;-77
2021/04/21 11:44:49;;;;;;;6.18;3.72;;;;;;;;;;5019605;28;20434;-77
2021/04/21 11:47:33;;;;;;;7.68;3.83;;;;;;;;;;5052306;28;20536;-78
2021/04/21 11:49:58;;;;;;;8.15;3.95;;;;;;;;;;5052843;28;20078;-77
2021/04/21 11:52:45;;;;;;;6.30;3.90;;;;;;;;;;5069900;28;20119;-77
2021/04/21 11:55:19;;;;;;;7.85;3.80;;;;;;;;;;5070329;28;20055;-78
2021/04/21 11:57:50;;;;;;;6.72;3.63;;;;;;;;;;5036636;28;20047;-77
2021/04/21 12:00:16;;;;;;;6.32;3.70;;;;;;;;;;5053208;23;20036;-76
2021/04/21 12:02:41;;;;;;;6.77;3.90;;;;;;;;;;5049660;28;20513;-75
2021/04/21 12:05:07;;;;;;;7.37;3.80;;;;;;;;;;5072479;28;20073;-76
2021/04/21 12:07:32;;;;;;;7.10;3.83;;;;;;;;;;5055929;28;20071;-76
2021/04/21 12:10:00;;;;;;;7.27;3.73;;;;;;;;;;5059575;28;20039;-76
2021/04/21 12:12:26;;;;;;;7.57;3.85;;;;;;;;;;5053477;28;20384;-76
2021/04/21 12:15:05;;;;;;;7.10;3.70;;;;;;;;;;5054204;28;20043;-76
2021/04/21 12:17:31;;;;;;;7.97;4.00;;;;;;;;;;5019412;28;20033;-76
2021/04/21 12:19:59;;;;;;;6.90;3.80;;;;;;;;;;5019157;28;20029;-76
2021/04/21 12:22:40;;;;;;;7.13;3.88;;;;;;;;;;5019326;28;20033;-76
2021/04/21 12:25:09;;;;;;;7.10;3.88;;;;;;;;;;5019219;28;20072;-76
2021/04/21 12:27:34;;;;;;;7.47;4.00;;;;;;;;;;5035803;28;20067;-76
2021/04/21 12:30:12;;;;;;;6.63;3.90;;;;;;;;;;5035564;28;20408;-76
2021/04/21 12:32:38;;;;;;;7.13;3.65;;;;;;;;;;5035203;28;20041;-77
2021/04/21 12:35:03;;;;;;;6.97;3.93;;;;;;;;;;5068047;28;20517;-76
2021/04/21 12:37:29;;;;;;;7.35;3.80;;;;;;;;;;5072084;28;20031;-76
2021/04/21 12:39:55;;;;;;;6.65;3.90;;;;;;;;;;5055369;28;20495;-76
2021/04/21 12:42:20;;;;;;;6.20;3.60;;;;;;;;;;5055160;28;20071;-76
2021/04/21 12:44:45;;;;;;;6.83;3.33;;;;;;;;;;5073138;28;20071;-76
2021/04/21 12:47:12;;;;;;;7.33;3.87;;;;;;;;;;5055163;28;20461;-76
2021/04/21 12:49:40;;;;;;;7.55;3.90;;;;;;;;;;5071930;28;20032;-76
2021/04/21 12:52:11;;;;;;;6.65;3.53;;;;;;;;;;5071752;28;20033;-74
2021/04/21 12:54:47;;;;;;;6.85;3.70;;;;;;;;;;5071631;28;20082;-75
2021/04/21 12:57:13;;;;;;;5.72;3.42;;;;;;;;;;5071720;28;20032;-75
2021/04/21 12:59:46;;;;;;;6.18;3.47;;;;;;;;;;5071628;28;20025;-76
2021/04/21 13:02:13;;;;;;;6.32;3.35;;;;;;;;;;5072222;28;20494;-75
2021/04/21 13:04:39;;;;;;;6.72;3.58;;;;;;;;;;5071703;28;20410;-76
2021/04/21 13:07:18;;;;;;;7.13;3.85;;;;;;;;;;5054906;28;20052;-76
2021/04/21 13:09:44;;;;;;;6.50;3.40;;;;;;;;;;5071663;28;20082;-76
2021/04/21 13:12:14;;;;;;;6.28;3.88;;;;;;;;;;5054996;28;20025;-76
2021/04/21 13:14:41;;;;;;;7.45;3.85;;;;;;;;;;5058099;28;20380;-75
2021/04/21 13:17:07;;;;;;;6.38;3.40;;;;;;;;;;5069418;28;20032;-75
2021/04/21 13:19:36;;;;;;;6.73;3.50;;;;;;;;;;5022516;28;20033;-76
2021/04/21 13:22:06;;;;;;;6.18;3.33;;;;;;;;;;5038933;28;20036;-76
2021/04/21 13:24:41;;;;;;;6.80;3.70;;;;;;;;;;5056793;28;20029;-76
2021/04/21 13:27:15;;;;;;;6.18;3.55;;;;;;;;;;5056567;28;20044;-75
2021/04/21 13:29:41;;;;;;;6.45;3.50;;;;;;;;;;5039378;28;20172;-76
2021/04/21 13:32:07;;;;;;;6.00;3.50;;;;;;;;;;5022195;28;20502;-75
2021/04/21 13:34:33;;;;;;;;;;;;;;;;;;5057035;28;20029;-76
2021/04/21 13:36:59;;;;;;;5.45;3.20;;;;;;;;;;5055482;28;19908;-75
2021/04/21 13:39:24;;;;;;;5.50;3.35;;;;;;;;;;5056415;28;20033;-76
2021/04/21 13:41:50;;;;;;;6.07;3.60;;;;;;;;;;5038648;28;20499;-76
2021/04/21 13:44:15;;;;;;;7.17;3.80;;;;;;;;;;5056434;28;20447;-76
2021/04/21 13:46:40;;;;;;;5.67;3.43;;;;;;;;;;5038818;28;20106;-75
2021/04/21 13:49:06;;;;;;;5.80;3.10;;;;;;;;;;5056290;28;20061;-75
2021/04/21 13:51:31;;;;;;;5.57;3.20;;;;;;;;;;5038392;28;20056;-75
2021/04/21 13:53:56;;;;;;;5.00;3.27;;;;;;;;;;5038475;28;20487;-75
2021/04/21 13:56:22;;;;;;;6.30;3.47;;;;;;;;;;5056616;28;20461;-75
2021/04/21 13:58:47;;;;;;;5.53;3.53;;;;;;;;;;5055031;28;20509;-75
2021/04/21 14:01:12;;;;;;;6.53;3.50;;;;;;;;;;5038559;28;20040;-76
2021/04/21 14:03:38;;;;;;;6.37;3.37;;;;;;;;;;5030150;28;20124;-75
2021/04/21 14:06:03;;;;;;;6.27;3.57;;;;;;;;;;5034911;28;20057;-75
2021/04/21 14:08:28;;;;;;;5.60;3.37;;;;;;;;;;5036105;28;20546;-75
2021/04/21 14:10:54;;;;;;;6.00;3.40;;;;;;;;;;5018280;28;20084;-75
2021/04/21 14:13:19;;;;;;;6.83;3.43;;;;;;;;;;5018711;28;20125;-75
2021/04/21 14:15:45;;;;;;;5.60;3.40;;;;;;;;;;5051851;28;20096;-75
2021/04/21 14:18:10;;;;;;;6.73;3.50;;;;;;;;;;5037927;28;20035;-75
2021/04/21 14:20:36;;;;;;;5.73;3.13;;;;;;;;;;5054580;28;20025;-75
2021/04/21 14:23:02;;;;;;;6.07;3.20;;;;;;;;;;5036164;28;20399;-75
2021/04/21 14:25:27;;;;;;;5.38;3.20;;;;;;;;;;5033612;28;20033;-75
2021/04/21 14:27:53;;;;;;;6.67;3.23;;;;;;;;;;5017946;28;20069;-76
2021/04/21 14:30:18;;;;;;;5.47;3.33;;;;;;;;;;5017725;28;20063;-76
2021/04/21 14:32:44;;;;;;;5.17;3.30;;;;;;;;;;5017938;28;20073;-75
2021/04/21 14:35:10;;;;;;;6.30;3.43;;;;;;;;;;5036255;28;20087;-75
2021/04/21 14:37:36;;;;;;;6.00;3.37;;;;;;;;;;5010159;28;20620;-76
2021/04/21 14:40:01;;;;;;;5.60;3.50;;;;;;;;;;5037303;28;20037;-76
2021/04/21 14:42:28;;;;;;;6.17;3.63;;;;;;;;;;5037225;28;20044;-76
2021/04/21 14:44:53;;;;;;;5.60;2.88;;;;;;;;;;5022835;28;20036;-76
2021/04/21 14:47:18;;;;;;;6.17;3.20;;;;;;;;;;5027310;28;20029;-76
2021/04/21 14:49:44;;;;;;;5.60;3.20;;;;;;;;;;5007507;28;20120;-75
2021/04/21 14:52:09;;;;;;;6.97;3.40;;;;;;;;;;5022950;28;20114;-76
2021/04/21 14:54:35;;;;;;;8.47;3.43;;;;;;;;;;5022512;28;20055;-75
2021/04/21 14:57:02;;;;;;;6.40;3.23;;;;;;;;;;5054917;28;20395;-76
2021/04/21 14:59:27;;;;;;;8.18;3.50;;;;;;;;;;5034794;28;20044;-77
2021/04/21 15:01:53;;;;;;;6.17;3.20;;;;;;;;;;5049514;28;20559;-77
2021/04/21 15:04:18;;;;;;;6.53;3.17;;;;;;;;;;5020495;28;20068;-76
2021/04/21 15:06:45;;;;;;;6.33;3.30;;;;;;;;;;5055230;28;20114;-76
2021/04/21 15:09:10;;;;;;;5.70;3.15;;;;;;;;;;5037029;28;20028;-76